sensor_id;sensor_type;location;lat;lon;timestamp;P1;durP1;ratioP1;P2;durP2;ratioP2
21862;SDS011;11096;51.338;12.524;2024-01-15T00:02:17;21.58;;;10.38;;
21862;SDS011;11096;51.338;12.524;2024-01-15T00:04:42;17.85;;;10.13;;
21862;SDS011;11096;51.338;12.524;2024-01-15T00:07:08;22.15;;;11.30;;
21862;SDS011;11096;51.338;12.524;2024-01-15T00:09:33;19.77;;;10.32;;
21862;SDS011;11096;51.338;12.524;2024-01-15T00:11:59;20.08;;;10.00;;
21862;SDS011;11096;51.338;12.524;2024-01-15T00:14:24;18.85;;;10.27;;
21862;SDS011;11096;51.338;12.524;2024-01-15T00:16:49;18.58;;;9.68;;
21862;SDS011;11096;51.338;12.524;2024-01-15T00:19:16;21.23;;;11.40;;
21862;SDS011;11096;51.338;12.524;2024-01-15T00:21:41;19.30;;;10.02;;
21862;SDS011;11096;51.338;12.524;2024-01-15T00:24:07;18.83;;;10.00;;
21862;SDS011;11096;51.338;12.524;2024-01-15T00:26:32;21.67;;;10.80;;
21862;SDS011;11096;51.338;12.524;2024-01-15T00:28:58;23.92;;;10.75;;
21862;SDS011;11096;51.338;12.524;2024-01-15T00:31:23;19.20;;;9.63;;
21862;SDS011;11096;51.338;12.524;2024-01-15T00:33:48;22.58;;;11.00;;
21862;SDS011;11096;51.338;12.524;2024-01-15T00:36:13;19.48;;;11.07;;
21862;SDS011;11096;51.338;12.524;2024-01-15T00:38:39;20.42;;;11.45;;
21862;SDS011;11096;51.338;12.524;2024-01-15T00:41:04;21.02;;;10.70;;
21862;SDS011;11096;51.338;12.524;2024-01-15T00:43:30;21.27;;;10.13;;
21862;SDS011;11096;51.338;12.524;2024-01-15T00:45:55;21.80;;;10.65;;
21862;SDS011;11096;51.338;12.524;2024-01-15T00:48:20;21.27;;;11.00;;
21862;SDS011;11096;51.338;12.524;2024-01-15T00:50:45;20.80;;;10.30;;
21862;SDS011;11096;51.338;12.524;2024-01-15T00:53:10;21.50;;;10.48;;
21862;SDS011;11096;51.338;12.524;2024-01-15T00:55:36;20.00;;;10.75;;
21862;SDS011;11096;51.338;12.524;2024-01-15T00:58:02;19.58;;;9.85;;
21862;SDS011;11096;51.338;12.524;2024-01-15T01:00:28;19.35;;;9.70;;
21862;SDS011;11096;51.338;12.524;2024-01-15T01:02:53;20.25;;;9.70;;
21862;SDS011;11096;51.338;12.524;2024-01-15T01:05:18;18.85;;;10.25;;
21862;SDS011;11096;51.338;12.524;2024-01-15T01:07:44;20.15;;;9.20;;
21862;SDS011;11096;51.338;12.524;2024-01-15T01:10:09;21.15;;;10.05;;
21862;SDS011;11096;51.338;12.524;2024-01-15T01:12:34;19.38;;;9.90;;
21862;SDS011;11096;51.338;12.524;2024-01-15T01:14:59;21.63;;;10.65;;
21862;SDS011;11096;51.338;12.524;2024-01-15T01:17:25;17.40;;;8.90;;
21862;SDS011;11096;51.338;12.524;2024-01-15T01:19:50;18.35;;;10.18;;
21862;SDS011;11096;51.338;12.524;2024-01-15T01:22:15;19.25;;;9.68;;
21862;SDS011;11096;51.338;12.524;2024-01-15T01:24:40;18.63;;;9.45;;
21862;SDS011;11096;51.338;12.524;2024-01-15T01:27:06;21.23;;;11.02;;
21862;SDS011;11096;51.338;12.524;2024-01-15T01:29:31;21.60;;;10.10;;
21862;SDS011;11096;51.338;12.524;2024-01-15T01:31:56;19.42;;;9.98;;
21862;SDS011;11096;51.338;12.524;2024-01-15T01:34:21;20.08;;;9.63;;
21862;SDS011;11096;51.338;12.524;2024-01-15T01:36:47;19.55;;;10.02;;
21862;SDS011;11096;51.338;12.524;2024-01-15T01:39:12;19.20;;;9.15;;
21862;SDS011;11096;51.338;12.524;2024-01-15T01:41:38;21.30;;;10.23;;
21862;SDS011;11096;51.338;12.524;2024-01-15T01:44:03;16.30;;;9.50;;
21862;SDS011;11096;51.338;12.524;2024-01-15T01:46:28;19.40;;;10.27;;
21862;SDS011;11096;51.338;12.524;2024-01-15T01:48:54;17.42;;;9.60;;
21862;SDS011;11096;51.338;12.524;2024-01-15T01:51:20;21.65;;;10.50;;
21862;SDS011;11096;51.338;12.524;2024-01-15T01:53:46;20.17;;;9.88;;
21862;SDS011;11096;51.338;12.524;2024-01-15T01:56:12;22.23;;;9.98;;
21862;SDS011;11096;51.338;12.524;2024-01-15T01:58:38;19.10;;;9.57;;
21862;SDS011;11096;51.338;12.524;2024-01-15T02:01:03;21.25;;;10.40;;
21862;SDS011;11096;51.338;12.524;2024-01-15T02:03:29;22.30;;;10.27;;
21862;SDS011;11096;51.338;12.524;2024-01-15T02:05:55;17.55;;;8.10;;
21862;SDS011;11096;51.338;12.524;2024-01-15T02:08:21;19.00;;;9.40;;
21862;SDS011;11096;51.338;12.524;2024-01-15T02:10:46;20.20;;;10.57;;
21862;SDS011;11096;51.338;12.524;2024-01-15T02:13:11;20.45;;;10.70;;
21862;SDS011;11096;51.338;12.524;2024-01-15T02:15:37;20.25;;;10.48;;
21862;SDS011;11096;51.338;12.524;2024-01-15T02:18:05;24.90;;;10.52;;
21862;SDS011;11096;51.338;12.524;2024-01-15T02:20:32;20.83;;;9.43;;
21862;SDS011;11096;51.338;12.524;2024-01-15T02:23:11;20.27;;;9.95;;
21862;SDS011;11096;51.338;12.524;2024-01-15T02:25:37;25.15;;;10.60;;
21862;SDS011;11096;51.338;12.524;2024-01-15T02:28:03;21.10;;;11.13;;
21862;SDS011;11096;51.338;12.524;2024-01-15T02:30:29;21.63;;;9.85;;
21862;SDS011;11096;51.338;12.524;2024-01-15T02:32:54;20.13;;;9.77;;
21862;SDS011;11096;51.338;12.524;2024-01-15T02:35:20;20.33;;;9.77;;
21862;SDS011;11096;51.338;12.524;2024-01-15T02:37:45;21.45;;;9.20;;
21862;SDS011;11096;51.338;12.524;2024-01-15T02:40:10;20.52;;;9.68;;
21862;SDS011;11096;51.338;12.524;2024-01-15T02:42:36;16.67;;;9.13;;
21862;SDS011;11096;51.338;12.524;2024-01-15T02:45:01;21.27;;;9.77;;
21862;SDS011;11096;51.338;12.524;2024-01-15T02:47:26;17.65;;;8.30;;
21862;SDS011;11096;51.338;12.524;2024-01-15T02:49:51;18.70;;;8.65;;
21862;SDS011;11096;51.338;12.524;2024-01-15T02:52:17;17.17;;;9.30;;
21862;SDS011;11096;51.338;12.524;2024-01-15T02:54:42;19.52;;;9.48;;
21862;SDS011;11096;51.338;12.524;2024-01-15T02:57:07;18.77;;;8.70;;
21862;SDS011;11096;51.338;12.524;2024-01-15T02:59:33;19.05;;;8.85;;
21862;SDS011;11096;51.338;12.524;2024-01-15T03:01:58;20.92;;;9.15;;
21862;SDS011;11096;51.338;12.524;2024-01-15T03:04:23;17.33;;;9.45;;
21862;SDS011;11096;51.338;12.524;2024-01-15T03:06:48;17.58;;;8.80;;
21862;SDS011;11096;51.338;12.524;2024-01-15T03:09:13;17.73;;;8.85;;
21862;SDS011;11096;51.338;12.524;2024-01-15T03:11:39;19.17;;;8.70;;
21862;SDS011;11096;51.338;12.524;2024-01-15T03:14:04;18.90;;;8.48;;
21862;SDS011;11096;51.338;12.524;2024-01-15T03:16:30;18.40;;;7.82;;
21862;SDS011;11096;51.338;12.524;2024-01-15T03:18:55;14.35;;;8.27;;
21862;SDS011;11096;51.338;12.524;2024-01-15T03:21:20;16.83;;;7.55;;
21862;SDS011;11096;51.338;12.524;2024-01-15T03:23:45;17.88;;;8.32;;
21862;SDS011;11096;51.338;12.524;2024-01-15T03:26:10;20.33;;;8.23;;
21862;SDS011;11096;51.338;12.524;2024-01-15T03:28:36;18.40;;;8.77;;
21862;SDS011;11096;51.338;12.524;2024-01-15T03:31:02;15.02;;;7.57;;
21862;SDS011;11096;51.338;12.524;2024-01-15T03:33:27;16.33;;;8.02;;
21862;SDS011;11096;51.338;12.524;2024-01-15T03:35:52;15.30;;;8.50;;
21862;SDS011;11096;51.338;12.524;2024-01-15T03:38:17;18.63;;;8.48;;
21862;SDS011;11096;51.338;12.524;2024-01-15T03:40:42;18.92;;;7.75;;
21862;SDS011;11096;51.338;12.524;2024-01-15T03:43:08;21.08;;;9.35;;
21862;SDS011;11096;51.338;12.524;2024-01-15T03:45:33;19.60;;;9.82;;
21862;SDS011;11096;51.338;12.524;2024-01-15T03:47:58;17.02;;;8.57;;
21862;SDS011;11096;51.338;12.524;2024-01-15T03:50:24;17.98;;;8.48;;
21862;SDS011;11096;51.338;12.524;2024-01-15T03:52:49;19.30;;;8.45;;
21862;SDS011;11096;51.338;12.524;2024-01-15T03:55:14;15.77;;;8.07;;
21862;SDS011;11096;51.338;12.524;2024-01-15T03:57:40;15.80;;;8.27;;
21862;SDS011;11096;51.338;12.524;2024-01-15T04:00:05;16.95;;;8.50;;
21862;SDS011;11096;51.338;12.524;2024-01-15T04:02:30;22.60;;;8.45;;
21862;SDS011;11096;51.338;12.524;2024-01-15T04:04:56;19.85;;;8.43;;
21862;SDS011;11096;51.338;12.524;2024-01-15T04:07:21;19.15;;;8.18;;
21862;SDS011;11096;51.338;12.524;2024-01-15T04:09:46;20.08;;;8.88;;
21862;SDS011;11096;51.338;12.524;2024-01-15T04:12:11;16.80;;;8.40;;
21862;SDS011;11096;51.338;12.524;2024-01-15T04:14:37;16.10;;;8.82;;
21862;SDS011;11096;51.338;12.524;2024-01-15T04:17:02;14.50;;;7.88;;
21862;SDS011;11096;51.338;12.524;2024-01-15T04:19:27;14.70;;;7.85;;
21862;SDS011;11096;51.338;12.524;2024-01-15T04:21:52;18.80;;;8.85;;
21862;SDS011;11096;51.338;12.524;2024-01-15T04:24:18;16.63;;;7.97;;
21862;SDS011;11096;51.338;12.524;2024-01-15T04:26:43;18.15;;;8.10;;
21862;SDS011;11096;51.338;12.524;2024-01-15T04:29:08;15.77;;;8.25;;
21862;SDS011;11096;51.338;12.524;2024-01-15T04:31:33;16.88;;;8.30;;
21862;SDS011;11096;51.338;12.524;2024-01-15T04:33:59;13.93;;;7.45;;
21862;SDS011;11096;51.338;12.524;2024-01-15T04:36:24;17.38;;;8.20;;
21862;SDS011;11096;51.338;12.524;2024-01-15T04:38:49;15.40;;;7.10;;
21862;SDS011;11096;51.338;12.524;2024-01-15T04:41:14;13.95;;;6.70;;
21862;SDS011;11096;51.338;12.524;2024-01-15T04:43:40;13.02;;;6.80;;
21862;SDS011;11096;51.338;12.524;2024-01-15T04:46:06;18.15;;;7.65;;
21862;SDS011;11096;51.338;12.524;2024-01-15T04:48:32;14.43;;;7.25;;
21862;SDS011;11096;51.338;12.524;2024-01-15T04:50:57;15.35;;;6.80;;
21862;SDS011;11096;51.338;12.524;2024-01-15T04:53:22;16.90;;;7.35;;
21862;SDS011;11096;51.338;12.524;2024-01-15T04:55:47;13.45;;;6.55;;
21862;SDS011;11096;51.338;12.524;2024-01-15T04:58:13;14.75;;;7.45;;
21862;SDS011;11096;51.338;12.524;2024-01-15T05:00:38;13.93;;;7.53;;
21862;SDS011;11096;51.338;12.524;2024-01-15T05:03:04;17.95;;;7.78;;
21862;SDS011;11096;51.338;12.524;2024-01-15T05:05:29;14.35;;;7.90;;
21862;SDS011;11096;51.338;12.524;2024-01-15T05:07:54;16.88;;;7.45;;
21862;SDS011;11096;51.338;12.524;2024-01-15T05:10:19;15.13;;;6.60;;
21862;SDS011;11096;51.338;12.524;2024-01-15T05:12:45;12.68;;;6.68;;
21862;SDS011;11096;51.338;12.524;2024-01-15T05:15:10;15.05;;;6.53;;
21862;SDS011;11096;51.338;12.524;2024-01-15T05:17:35;12.57;;;6.57;;
21862;SDS011;11096;51.338;12.524;2024-01-15T05:20:00;14.10;;;7.20;;
21862;SDS011;11096;51.338;12.524;2024-01-15T05:22:26;13.23;;;6.75;;
21862;SDS011;11096;51.338;12.524;2024-01-15T05:24:51;14.80;;;6.35;;
21862;SDS011;11096;51.338;12.524;2024-01-15T05:27:16;15.52;;;6.35;;
21862;SDS011;11096;51.338;12.524;2024-01-15T05:29:41;12.93;;;6.57;;
21862;SDS011;11096;51.338;12.524;2024-01-15T05:32:07;12.32;;;5.97;;
21862;SDS011;11096;51.338;12.524;2024-01-15T05:34:32;12.15;;;6.25;;
21862;SDS011;11096;51.338;12.524;2024-01-15T05:36:57;12.15;;;6.20;;
21862;SDS011;11096;51.338;12.524;2024-01-15T05:39:22;14.18;;;7.03;;
21862;SDS011;11096;51.338;12.524;2024-01-15T05:41:48;18.10;;;8.77;;
21862;SDS011;11096;51.338;12.524;2024-01-15T05:44:13;14.77;;;7.10;;
21862;SDS011;11096;51.338;12.524;2024-01-15T05:46:38;14.05;;;7.07;;
21862;SDS011;11096;51.338;12.524;2024-01-15T05:49:03;14.77;;;6.57;;
21862;SDS011;11096;51.338;12.524;2024-01-15T05:51:29;11.63;;;6.00;;
21862;SDS011;11096;51.338;12.524;2024-01-15T05:53:54;14.90;;;7.45;;
21862;SDS011;11096;51.338;12.524;2024-01-15T05:56:19;12.20;;;6.20;;
21862;SDS011;11096;51.338;12.524;2024-01-15T05:58:44;14.95;;;7.05;;
21862;SDS011;11096;51.338;12.524;2024-01-15T06:01:10;10.90;;;6.07;;
21862;SDS011;11096;51.338;12.524;2024-01-15T06:03:35;13.43;;;6.78;;
21862;SDS011;11096;51.338;12.524;2024-01-15T06:06:00;14.63;;;7.35;;
21862;SDS011;11096;51.338;12.524;2024-01-15T06:08:25;12.55;;;5.95;;
21862;SDS011;11096;51.338;12.524;2024-01-15T06:10:52;13.38;;;5.78;;
21862;SDS011;11096;51.338;12.524;2024-01-15T06:13:17;13.30;;;6.45;;
21862;SDS011;11096;51.338;12.524;2024-01-15T06:15:43;15.27;;;6.40;;
21862;SDS011;11096;51.338;12.524;2024-01-15T06:18:08;11.68;;;6.15;;
21862;SDS011;11096;51.338;12.524;2024-01-15T06:20:33;12.05;;;5.50;;
21862;SDS011;11096;51.338;12.524;2024-01-15T06:22:59;10.75;;;5.93;;
21862;SDS011;11096;51.338;12.524;2024-01-15T06:25:24;10.35;;;5.80;;
21862;SDS011;11096;51.338;12.524;2024-01-15T06:27:49;13.93;;;6.40;;
21862;SDS011;11096;51.338;12.524;2024-01-15T06:30:14;14.02;;;6.45;;
21862;SDS011;11096;51.338;12.524;2024-01-15T06:32:40;11.88;;;6.22;;
21862;SDS011;11096;51.338;12.524;2024-01-15T06:35:05;9.88;;;5.88;;
21862;SDS011;11096;51.338;12.524;2024-01-15T06:37:31;13.50;;;6.38;;
21862;SDS011;11096;51.338;12.524;2024-01-15T06:39:57;8.80;;;5.40;;
21862;SDS011;11096;51.338;12.524;2024-01-15T06:42:22;11.50;;;5.78;;
21862;SDS011;11096;51.338;12.524;2024-01-15T06:44:48;11.20;;;5.68;;
21862;SDS011;11096;51.338;12.524;2024-01-15T06:47:13;12.60;;;5.70;;
21862;SDS011;11096;51.338;12.524;2024-01-15T06:49:39;12.52;;;5.97;;
21862;SDS011;11096;51.338;12.524;2024-01-15T06:52:05;11.63;;;5.65;;
21862;SDS011;11096;51.338;12.524;2024-01-15T06:54:30;11.73;;;6.22;;
21862;SDS011;11096;51.338;12.524;2024-01-15T06:56:55;11.23;;;5.82;;
21862;SDS011;11096;51.338;12.524;2024-01-15T06:59:20;10.73;;;5.82;;
21862;SDS011;11096;51.338;12.524;2024-01-15T07:01:46;10.57;;;5.50;;
21862;SDS011;11096;51.338;12.524;2024-01-15T07:04:11;9.52;;;4.95;;
21862;SDS011;11096;51.338;12.524;2024-01-15T07:06:36;13.43;;;5.32;;
21862;SDS011;11096;51.338;12.524;2024-01-15T07:09:01;12.10;;;5.40;;
21862;SDS011;11096;51.338;12.524;2024-01-15T07:11:27;14.15;;;6.18;;
21862;SDS011;11096;51.338;12.524;2024-01-15T07:13:52;13.00;;;5.55;;
21862;SDS011;11096;51.338;12.524;2024-01-15T07:16:17;14.60;;;6.07;;
21862;SDS011;11096;51.338;12.524;2024-01-15T07:18:42;12.40;;;6.60;;
21862;SDS011;11096;51.338;12.524;2024-01-15T07:21:08;9.38;;;5.10;;
21862;SDS011;11096;51.338;12.524;2024-01-15T07:23:33;11.43;;;5.57;;
21862;SDS011;11096;51.338;12.524;2024-01-15T07:25:58;11.60;;;5.72;;
21862;SDS011;11096;51.338;12.524;2024-01-15T07:28:23;11.63;;;5.85;;
21862;SDS011;11096;51.338;12.524;2024-01-15T07:30:49;12.38;;;5.60;;
21862;SDS011;11096;51.338;12.524;2024-01-15T07:33:14;15.25;;;5.63;;
21862;SDS011;11096;51.338;12.524;2024-01-15T07:35:39;10.55;;;5.30;;
21862;SDS011;11096;51.338;12.524;2024-01-15T07:38:04;10.73;;;5.22;;
21862;SDS011;11096;51.338;12.524;2024-01-15T07:40:30;10.32;;;4.95;;
21862;SDS011;11096;51.338;12.524;2024-01-15T07:42:55;12.13;;;5.28;;
21862;SDS011;11096;51.338;12.524;2024-01-15T07:45:20;11.77;;;5.65;;
21862;SDS011;11096;51.338;12.524;2024-01-15T07:47:46;15.23;;;5.53;;
21862;SDS011;11096;51.338;12.524;2024-01-15T07:50:11;7.22;;;4.60;;
21862;SDS011;11096;51.338;12.524;2024-01-15T07:52:36;10.65;;;5.60;;
21862;SDS011;11096;51.338;12.524;2024-01-15T07:55:01;9.98;;;5.70;;
21862;SDS011;11096;51.338;12.524;2024-01-15T07:57:28;9.60;;;5.20;;
21862;SDS011;11096;51.338;12.524;2024-01-15T07:59:53;12.93;;;5.45;;
21862;SDS011;11096;51.338;12.524;2024-01-15T08:02:19;9.18;;;5.28;;
21862;SDS011;11096;51.338;12.524;2024-01-15T08:04:44;11.38;;;5.13;;
21862;SDS011;11096;51.338;12.524;2024-01-15T08:07:10;12.32;;;5.45;;
21862;SDS011;11096;51.338;12.524;2024-01-15T08:09:36;18.73;;;5.50;;
21862;SDS011;11096;51.338;12.524;2024-01-15T08:12:01;13.20;;;6.20;;
21862;SDS011;11096;51.338;12.524;2024-01-15T08:14:26;12.80;;;5.90;;
21862;SDS011;11096;51.338;12.524;2024-01-15T08:16:52;10.40;;;5.32;;
21862;SDS011;11096;51.338;12.524;2024-01-15T08:19:17;11.52;;;5.60;;
21862;SDS011;11096;51.338;12.524;2024-01-15T08:21:42;11.20;;;5.25;;
21862;SDS011;11096;51.338;12.524;2024-01-15T08:24:08;13.07;;;5.85;;
21862;SDS011;11096;51.338;12.524;2024-01-15T08:26:33;11.40;;;5.15;;
21862;SDS011;11096;51.338;12.524;2024-01-15T08:28:58;11.82;;;5.55;;
21862;SDS011;11096;51.338;12.524;2024-01-15T08:31:24;11.10;;;5.47;;
21862;SDS011;11096;51.338;12.524;2024-01-15T08:33:49;11.68;;;5.55;;
21862;SDS011;11096;51.338;12.524;2024-01-15T08:36:14;10.80;;;5.78;;
21862;SDS011;11096;51.338;12.524;2024-01-15T08:38:39;10.80;;;4.97;;
21862;SDS011;11096;51.338;12.524;2024-01-15T08:41:05;17.10;;;5.38;;
21862;SDS011;11096;51.338;12.524;2024-01-15T08:43:30;11.30;;;5.60;;
21862;SDS011;11096;51.338;12.524;2024-01-15T08:45:58;11.35;;;5.03;;
21862;SDS011;11096;51.338;12.524;2024-01-15T08:48:24;11.15;;;5.30;;
21862;SDS011;11096;51.338;12.524;2024-01-15T08:50:52;12.68;;;5.78;;
21862;SDS011;11096;51.338;12.524;2024-01-15T08:53:17;11.85;;;5.45;;
21862;SDS011;11096;51.338;12.524;2024-01-15T08:55:42;12.10;;;6.35;;
21862;SDS011;11096;51.338;12.524;2024-01-15T08:58:09;10.98;;;4.82;;
21862;SDS011;11096;51.338;12.524;2024-01-15T09:00:34;10.75;;;5.10;;
21862;SDS011;11096;51.338;12.524;2024-01-15T09:02:59;8.70;;;5.10;;
21862;SDS011;11096;51.338;12.524;2024-01-15T09:05:25;8.25;;;5.10;;
21862;SDS011;11096;51.338;12.524;2024-01-15T09:07:50;11.82;;;5.18;;
21862;SDS011;11096;51.338;12.524;2024-01-15T09:10:17;7.60;;;4.47;;
21862;SDS011;11096;51.338;12.524;2024-01-15T09:12:42;9.77;;;4.82;;
21862;SDS011;11096;51.338;12.524;2024-01-15T09:15:07;12.93;;;5.13;;
21862;SDS011;11096;51.338;12.524;2024-01-15T09:17:33;11.52;;;4.88;;
21862;SDS011;11096;51.338;12.524;2024-01-15T09:19:58;11.30;;;5.25;;
21862;SDS011;11096;51.338;12.524;2024-01-15T09:22:23;10.20;;;5.13;;
21862;SDS011;11096;51.338;12.524;2024-01-15T09:24:49;6.90;;;4.13;;
21862;SDS011;11096;51.338;12.524;2024-01-15T09:27:14;11.07;;;4.85;;
21862;SDS011;11096;51.338;12.524;2024-01-15T09:29:40;16.20;;;5.28;;
21862;SDS011;11096;51.338;12.524;2024-01-15T09:32:07;9.75;;;4.43;;
21862;SDS011;11096;51.338;12.524;2024-01-15T09:34:32;9.43;;;4.47;;
21862;SDS011;11096;51.338;12.524;2024-01-15T09:36:58;13.88;;;5.28;;
21862;SDS011;11096;51.338;12.524;2024-01-15T09:39:25;11.13;;;5.65;;
21862;SDS011;11096;51.338;12.524;2024-01-15T09:41:50;10.57;;;5.22;;
21862;SDS011;11096;51.338;12.524;2024-01-15T09:44:15;11.15;;;5.25;;
21862;SDS011;11096;51.338;12.524;2024-01-15T09:46:41;10.05;;;4.85;;
21862;SDS011;11096;51.338;12.524;2024-01-15T09:49:08;7.90;;;4.65;;
21862;SDS011;11096;51.338;12.524;2024-01-15T09:51:34;11.00;;;5.28;;
21862;SDS011;11096;51.338;12.524;2024-01-15T09:54:00;10.48;;;5.13;;
21862;SDS011;11096;51.338;12.524;2024-01-15T09:56:26;14.20;;;4.85;;
21862;SDS011;11096;51.338;12.524;2024-01-15T09:58:51;7.28;;;4.25;;
21862;SDS011;11096;51.338;12.524;2024-01-15T10:01:18;9.98;;;4.97;;
21862;SDS011;11096;51.338;12.524;2024-01-15T10:03:44;10.27;;;5.43;;
21862;SDS011;11096;51.338;12.524;2024-01-15T10:06:10;9.20;;;5.35;;
21862;SDS011;11096;51.338;12.524;2024-01-15T10:08:37;10.35;;;4.70;;
21862;SDS011;11096;51.338;12.524;2024-01-15T10:11:02;8.93;;;5.20;;
21862;SDS011;11096;51.338;12.524;2024-01-15T10:13:30;9.27;;;5.22;;
21862;SDS011;11096;51.338;12.524;2024-01-15T10:15:55;10.57;;;5.00;;
21862;SDS011;11096;51.338;12.524;2024-01-15T10:18:20;17.17;;;5.38;;
21862;SDS011;11096;51.338;12.524;2024-01-15T10:20:46;10.98;;;4.90;;
21862;SDS011;11096;51.338;12.524;2024-01-15T10:23:11;10.68;;;4.55;;
21862;SDS011;11096;51.338;12.524;2024-01-15T10:25:37;8.45;;;4.82;;
21862;SDS011;11096;51.338;12.524;2024-01-15T10:28:03;10.05;;;5.05;;
21862;SDS011;11096;51.338;12.524;2024-01-15T10:30:28;10.20;;;4.70;;
21862;SDS011;11096;51.338;12.524;2024-01-15T10:33:00;14.38;;;4.90;;
21862;SDS011;11096;51.338;12.524;2024-01-15T10:35:33;8.82;;;4.68;;
21862;SDS011;11096;51.338;12.524;2024-01-15T10:37:59;8.55;;;4.03;;
21862;SDS011;11096;51.338;12.524;2024-01-15T10:40:25;10.02;;;4.70;;
21862;SDS011;11096;51.338;12.524;2024-01-15T10:42:50;9.60;;;4.80;;
21862;SDS011;11096;51.338;12.524;2024-01-15T10:45:15;9.65;;;5.28;;
21862;SDS011;11096;51.338;12.524;2024-01-15T10:47:41;13.05;;;4.60;;
21862;SDS011;11096;51.338;12.524;2024-01-15T10:50:07;12.70;;;5.43;;
21862;SDS011;11096;51.338;12.524;2024-01-15T10:52:36;10.25;;;4.85;;
21862;SDS011;11096;51.338;12.524;2024-01-15T10:55:05;12.65;;;4.72;;
21862;SDS011;11096;51.338;12.524;2024-01-15T10:57:31;9.32;;;4.80;;
21862;SDS011;11096;51.338;12.524;2024-01-15T10:59:56;9.05;;;4.80;;
21862;SDS011;11096;51.338;12.524;2024-01-15T11:02:21;9.75;;;4.82;;
21862;SDS011;11096;51.338;12.524;2024-01-15T11:04:46;7.88;;;4.13;;
21862;SDS011;11096;51.338;12.524;2024-01-15T11:07:12;8.65;;;4.80;;
21862;SDS011;11096;51.338;12.524;2024-01-15T11:09:38;10.90;;;5.20;;
21862;SDS011;11096;51.338;12.524;2024-01-15T11:12:10;11.00;;;5.43;;
21862;SDS011;11096;51.338;12.524;2024-01-15T11:14:39;13.15;;;4.90;;
21862;SDS011;11096;51.338;12.524;2024-01-15T11:17:05;10.23;;;5.25;;
21862;SDS011;11096;51.338;12.524;2024-01-15T11:19:52;9.85;;;5.25;;
21862;SDS011;11096;51.338;12.524;2024-01-15T11:23:16;11.40;;;4.95;;
21862;SDS011;11096;51.338;12.524;2024-01-15T11:25:14;11.73;;;4.68;;
21862;SDS011;11096;51.338;12.524;2024-01-15T11:27:40;9.25;;;4.95;;
21862;SDS011;11096;51.338;12.524;2024-01-15T11:30:11;11.88;;;4.10;;
21862;SDS011;11096;51.338;12.524;2024-01-15T11:32:36;11.70;;;4.85;;
21862;SDS011;11096;51.338;12.524;2024-01-15T11:35:02;12.02;;;5.10;;
21862;SDS011;11096;51.338;12.524;2024-01-15T11:38:13;8.63;;;4.82;;
21862;SDS011;11096;51.338;12.524;2024-01-15T11:40:13;12.13;;;5.03;;
21862;SDS011;11096;51.338;12.524;2024-01-15T11:42:42;10.18;;;4.75;;
21862;SDS011;11096;51.338;12.524;2024-01-15T11:45:07;9.90;;;4.72;;
21862;SDS011;11096;51.338;12.524;2024-01-15T11:50:17;10.57;;;5.25;;
21862;SDS011;11096;51.338;12.524;2024-01-15T11:52:42;11.75;;;5.28;;
21862;SDS011;11096;51.338;12.524;2024-01-15T11:57:46;10.63;;;4.72;;
21862;SDS011;11096;51.338;12.524;2024-01-15T12:00:11;12.68;;;5.25;;
21862;SDS011;11096;51.338;12.524;2024-01-15T12:02:40;10.95;;;4.72;;
21862;SDS011;11096;51.338;12.524;2024-01-15T12:05:09;10.63;;;4.72;;
21862;SDS011;11096;51.338;12.524;2024-01-15T12:07:35;9.65;;;4.65;;
21862;SDS011;11096;51.338;12.524;2024-01-15T12:10:00;8.65;;;4.25;;
21862;SDS011;11096;51.338;12.524;2024-01-15T12:13:11;11.40;;;4.68;;
21862;SDS011;11096;51.338;12.524;2024-01-15T12:15:11;9.18;;;4.60;;
21862;SDS011;11096;51.338;12.524;2024-01-15T12:17:36;9.07;;;4.70;;
21862;SDS011;11096;51.338;12.524;2024-01-15T12:20:04;11.13;;;4.80;;
21862;SDS011;11096;51.338;12.524;2024-01-15T12:22:30;10.38;;;4.53;;
21862;SDS011;11096;51.338;12.524;2024-01-15T12:24:55;9.43;;;4.68;;
21862;SDS011;11096;51.338;12.524;2024-01-15T12:27:20;6.65;;;4.50;;
21862;SDS011;11096;51.338;12.524;2024-01-15T12:29:46;13.40;;;4.82;;
21862;SDS011;11096;51.338;12.524;2024-01-15T12:32:12;9.07;;;4.45;;
21862;SDS011;11096;51.338;12.524;2024-01-15T12:34:37;10.82;;;4.35;;
21862;SDS011;11096;51.338;12.524;2024-01-15T12:37:02;7.35;;;4.20;;
21862;SDS011;11096;51.338;12.524;2024-01-15T12:39:28;9.52;;;5.15;;
21862;SDS011;11096;51.338;12.524;2024-01-15T12:41:53;10.68;;;4.63;;
21862;SDS011;11096;51.338;12.524;2024-01-15T12:44:18;8.10;;;4.30;;
21862;SDS011;11096;51.338;12.524;2024-01-15T12:46:43;9.88;;;4.60;;
21862;SDS011;11096;51.338;12.524;2024-01-15T12:49:09;10.52;;;4.68;;
21862;SDS011;11096;51.338;12.524;2024-01-15T12:51:34;8.35;;;4.25;;
21862;SDS011;11096;51.338;12.524;2024-01-15T12:53:59;11.38;;;4.57;;
21862;SDS011;11096;51.338;12.524;2024-01-15T12:56:24;10.85;;;4.60;;
21862;SDS011;11096;51.338;12.524;2024-01-15T12:58:50;9.20;;;4.72;;
21862;SDS011;11096;51.338;12.524;2024-01-15T13:01:15;8.88;;;4.25;;
21862;SDS011;11096;51.338;12.524;2024-01-15T13:03:40;10.80;;;4.15;;
21862;SDS011;11096;51.338;12.524;2024-01-15T13:06:06;9.82;;;4.32;;
21862;SDS011;11096;51.338;12.524;2024-01-15T13:08:31;10.48;;;4.13;;
21862;SDS011;11096;51.338;12.524;2024-01-15T13:10:56;9.10;;;4.63;;
21862;SDS011;11096;51.338;12.524;2024-01-15T13:13:22;6.53;;;4.10;;
21862;SDS011;11096;51.338;12.524;2024-01-15T13:15:47;8.48;;;4.78;;
21862;SDS011;11096;51.338;12.524;2024-01-15T13:18:13;8.77;;;4.80;;
21862;SDS011;11096;51.338;12.524;2024-01-15T13:20:38;9.40;;;4.75;;
21862;SDS011;11096;51.338;12.524;2024-01-15T13:23:03;10.57;;;4.47;;
21862;SDS011;11096;51.338;12.524;2024-01-15T13:25:29;11.27;;;5.35;;
21862;SDS011;11096;51.338;12.524;2024-01-15T13:27:54;11.23;;;5.18;;
21862;SDS011;11096;51.338;12.524;2024-01-15T13:30:19;8.35;;;5.18;;
21862;SDS011;11096;51.338;12.524;2024-01-15T13:32:44;13.25;;;5.25;;
21862;SDS011;11096;51.338;12.524;2024-01-15T13:35:10;8.73;;;4.60;;
21862;SDS011;11096;51.338;12.524;2024-01-15T13:37:38;9.82;;;5.13;;
21862;SDS011;11096;51.338;12.524;2024-01-15T13:40:03;12.75;;;5.15;;
21862;SDS011;11096;51.338;12.524;2024-01-15T13:42:28;15.35;;;4.95;;
21862;SDS011;11096;51.338;12.524;2024-01-15T13:44:54;9.95;;;5.13;;
21862;SDS011;11096;51.338;12.524;2024-01-15T13:47:19;10.02;;;5.53;;
21862;SDS011;11096;51.338;12.524;2024-01-15T13:49:44;9.55;;;5.03;;
21862;SDS011;11096;51.338;12.524;2024-01-15T13:52:10;9.45;;;4.85;;
21862;SDS011;11096;51.338;12.524;2024-01-15T13:54:35;16.40;;;5.50;;
21862;SDS011;11096;51.338;12.524;2024-01-15T13:57:00;13.77;;;5.70;;
21862;SDS011;11096;51.338;12.524;2024-01-15T13:59:26;8.00;;;4.63;;
21862;SDS011;11096;51.338;12.524;2024-01-15T14:01:51;10.73;;;5.30;;
21862;SDS011;11096;51.338;12.524;2024-01-15T14:04:17;13.98;;;5.60;;
21862;SDS011;11096;51.338;12.524;2024-01-15T14:06:42;10.80;;;4.45;;
21862;SDS011;11096;51.338;12.524;2024-01-15T14:09:07;11.73;;;4.95;;
21862;SDS011;11096;51.338;12.524;2024-01-15T14:11:35;8.57;;;4.60;;
21862;SDS011;11096;51.338;12.524;2024-01-15T14:14:01;12.10;;;5.07;;
21862;SDS011;11096;51.338;12.524;2024-01-15T14:16:27;13.88;;;5.85;;
21862;SDS011;11096;51.338;12.524;2024-01-15T14:18:52;12.18;;;5.40;;
21862;SDS011;11096;51.338;12.524;2024-01-15T14:21:18;8.38;;;4.82;;